Terminal Aerodrome Forecast
Issued by NWS Springfield, MO

Home | Current Version | Previous Version | Text Only | Print | Product List | Glossary Off
Versions: 1 2 3 4 5 6 7 8 9 10 11 12 13 14

000
FTUS43 KSGF 291100
TAFSGF
TAF
KSGF 291120Z 2912/3012 15017G28KT P6SM SCT120 WS020/20040KT
     FM291600 17014G23KT P6SM SCT080 BKN120
     FM292000 26010KT P6SM SCT080 BKN120
     FM300000 30006KT P6SM SCT140=

USA.gov is the U.S. government's official web portal to all federal, state and local government web resources and services.